createdAt,value
2016-10-12T00:00:31.867Z,16.83
2016-10-12T00:01:42.598Z,16.71
2016-10-12T00:02:53.285Z,16.73
2016-10-12T00:04:04.014Z,16.7
2016-10-12T00:05:14.725Z,16.71
2016-10-12T00:06:25.455Z,16.81
2016-10-12T00:07:36.196Z,16.81
2016-10-12T00:08:46.914Z,16.79
2016-10-12T00:09:57.659Z,16.76
2016-10-12T00:11:08.372Z,16.73
2016-10-12T00:12:19.095Z,16.71
2016-10-12T00:13:29.815Z,16.68
2016-10-12T00:14:40.507Z,16.79
2016-10-12T00:15:51.221Z,16.67
2016-10-12T00:17:01.924Z,16.81
2016-10-12T00:18:12.640Z,16.75
2016-10-12T00:19:23.331Z,16.75
2016-10-12T00:20:34.028Z,16.79
2016-10-12T00:21:45.256Z,16.79
2016-10-12T00:22:55.967Z,16.85
2016-10-12T00:24:06.684Z,16.86
2016-10-12T00:25:17.372Z,16.89
2016-10-12T00:26:28.105Z,16.97
2016-10-12T00:27:38.807Z,17.12
2016-10-12T00:28:49.526Z,17.14
2016-10-12T00:30:00.242Z,17.22
2016-10-12T00:31:10.979Z,17.38
2016-10-12T00:32:21.696Z,17.31
2016-10-12T00:33:32.391Z,17.34
2016-10-12T00:34:43.116Z,17.26
2016-10-12T00:35:53.807Z,17.31
2016-10-12T00:37:04.509Z,17.37
2016-10-12T00:38:15.193Z,17.48
2016-10-12T00:39:25.897Z,17.48
2016-10-12T00:40:36.608Z,17.58
2016-10-12T00:41:47.870Z,17.59
2016-10-12T00:42:58.625Z,17.64
2016-10-12T00:44:09.348Z,17.58
2016-10-12T00:45:20.047Z,17.63
2016-10-12T00:46:30.745Z,17.63
2016-10-12T00:47:41.440Z,17.7
2016-10-12T00:48:52.146Z,17.74
2016-10-12T00:50:02.828Z,17.68
2016-10-12T00:51:13.535Z,17.68
2016-10-12T00:52:24.242Z,17.66
2016-10-12T00:53:34.947Z,17.75
2016-10-12T00:54:46.161Z,17.68
2016-10-12T00:55:56.854Z,17.68
2016-10-12T00:57:07.590Z,17.63
2016-10-12T00:58:18.295Z,17.51
2016-10-12T00:59:29.014Z,17.48
2016-10-12T01:00:39.727Z,17.43
2016-10-12T01:01:50.427Z,17.51
2016-10-12T01:03:01.130Z,17.43
2016-10-12T01:04:11.847Z,17.38
2016-10-12T01:05:22.552Z,17.34
2016-10-12T01:06:33.257Z,17.41
2016-10-12T01:07:43.971Z,17.31
2016-10-12T01:08:54.667Z,17.34
2016-10-12T01:10:05.377Z,17.4
2016-10-12T01:11:16.066Z,17.25
2016-10-12T01:12:26.780Z,17.21
2016-10-12T01:13:37.483Z,17.21
2016-10-12T01:14:48.201Z,17.4
2016-10-12T01:15:58.908Z,17.23
2016-10-12T01:17:09.680Z,17.28
2016-10-12T01:18:20.407Z,17.26
2016-10-12T01:19:31.113Z,17.22
2016-10-12T01:20:41.822Z,17.21
2016-10-12T01:21:52.567Z,17.07
2016-10-12T01:23:03.283Z,17.07
2016-10-12T01:24:13.994Z,16.94
2016-10-12T01:25:24.727Z,16.88
2016-10-12T01:26:35.980Z,16.81
2016-10-12T01:27:46.677Z,16.86
2016-10-12T01:28:57.412Z,16.89
2016-10-12T01:30:08.115Z,16.89
2016-10-12T01:31:18.828Z,16.85
2016-10-12T01:32:29.521Z,16.86
2016-10-12T01:33:40.203Z,16.88
2016-10-12T01:34:50.934Z,16.81
2016-10-12T01:36:01.636Z,16.82
2016-10-12T01:37:12.360Z,16.81
2016-10-12T01:38:23.091Z,16.88
2016-10-12T01:39:33.782Z,16.88
2016-10-12T01:40:44.512Z,16.86
2016-10-12T01:41:55.235Z,16.83
2016-10-12T01:43:05.948Z,16.83
2016-10-12T01:44:16.642Z,16.82
2016-10-12T01:45:27.351Z,16.88
2016-10-12T01:46:38.066Z,16.75
2016-10-12T01:47:48.808Z,16.83
2016-10-12T01:48:59.516Z,16.82
2016-10-12T01:50:10.234Z,16.81
2016-10-12T01:51:20.953Z,16.79
2016-10-12T01:52:31.653Z,16.61
2016-10-12T01:53:42.346Z,16.73
2016-10-12T01:54:53.034Z,16.71
2016-10-12T01:56:03.722Z,16.66
2016-10-12T01:57:14.439Z,16.66
2016-10-12T01:58:25.145Z,16.63
2016-10-12T01:59:35.832Z,16.63
2016-10-12T02:00:46.543Z,16.63
2016-10-12T02:01:57.266Z,16.61
2016-10-12T02:03:07.985Z,16.49
2016-10-12T02:04:18.681Z,16.6
2016-10-12T02:05:29.398Z,16.53
2016-10-12T02:06:40.120Z,16.46
2016-10-12T02:07:50.823Z,16.45
2016-10-12T02:09:02.062Z,16.43
2016-10-12T02:10:12.757Z,16.48
2016-10-12T02:11:23.467Z,16.5
2016-10-12T02:12:34.181Z,16.49
2016-10-12T02:13:44.906Z,16.45
2016-10-12T02:14:55.608Z,16.42
2016-10-12T02:16:06.319Z,16.42
2016-10-12T02:17:17.014Z,16.42
2016-10-12T02:18:27.733Z,16.31
2016-10-12T02:19:38.459Z,16.41
2016-10-12T02:20:49.161Z,16.42
2016-10-12T02:21:59.890Z,16.45
2016-10-12T02:23:10.589Z,16.46
2016-10-12T02:24:21.290Z,16.5
2016-10-12T02:25:32.014Z,16.46
2016-10-12T02:26:43.245Z,16.53
2016-10-12T02:27:53.948Z,16.48
2016-10-12T02:29:04.678Z,16.45
2016-10-12T02:30:15.397Z,16.46
2016-10-12T02:31:26.098Z,16.5
2016-10-12T02:32:36.821Z,16.45
2016-10-12T02:33:47.516Z,16.48
2016-10-12T02:34:58.246Z,16.45
2016-10-12T02:36:08.955Z,16.45
2016-10-12T02:37:19.652Z,16.48
2016-10-12T02:38:30.333Z,16.48
2016-10-12T02:39:41.042Z,16.43
2016-10-12T02:40:51.729Z,16.45
2016-10-12T02:42:02.435Z,16.49
2016-10-12T02:43:13.114Z,16.45
2016-10-12T02:44:23.829Z,16.53
2016-10-12T02:45:34.529Z,16.49
2016-10-12T02:46:45.270Z,16.49
2016-10-12T02:47:55.998Z,16.5
2016-10-12T02:49:06.728Z,16.49
2016-10-12T02:50:17.445Z,16.5
2016-10-12T02:51:28.145Z,16.49
2016-10-12T02:52:38.864Z,16.52
2016-10-12T02:53:49.565Z,16.49
2016-10-12T02:55:00.290Z,16.52
2016-10-12T02:56:10.985Z,16.49
2016-10-12T02:57:21.664Z,16.43
2016-10-12T02:58:32.387Z,16.49
2016-10-12T02:59:43.074Z,16.42
2016-10-12T03:00:53.772Z,16.49
2016-10-12T03:02:04.510Z,16.48
2016-10-12T03:03:15.224Z,16.46
2016-10-12T03:04:25.922Z,16.39
2016-10-12T03:05:36.637Z,16.43
2016-10-12T03:06:47.310Z,16.43
2016-10-12T03:07:58.426Z,16.42
2016-10-12T03:09:09.151Z,16.35
2016-10-12T03:10:19.872Z,16.42
2016-10-12T03:11:30.569Z,16.42
2016-10-12T03:12:41.284Z,16.38
2016-10-12T03:13:51.998Z,16.34
2016-10-12T03:15:02.716Z,16.43
2016-10-12T03:16:13.405Z,16.33
2016-10-12T03:17:24.115Z,16.24
2016-10-12T03:18:34.809Z,16.35
2016-10-12T03:19:45.537Z,16.17
2016-10-12T03:20:56.257Z,16.15
2016-10-12T03:22:06.966Z,16.28
2016-10-12T03:23:17.655Z,16.23
2016-10-12T03:24:28.369Z,16.17
2016-10-12T03:25:39.075Z,16.15
2016-10-12T03:26:49.784Z,16.2
2016-10-12T03:28:00.469Z,16.17
2016-10-12T03:29:11.197Z,16.25
2016-10-12T03:30:21.911Z,16.21
2016-10-12T03:31:32.651Z,16.15
2016-10-12T03:32:43.856Z,16.17
2016-10-12T03:33:55.120Z,16.15
2016-10-12T03:35:05.844Z,16.15
2016-10-12T03:36:16.564Z,16.33
2016-10-12T03:37:27.250Z,16.2
2016-10-12T03:38:37.962Z,16.24
2016-10-12T03:39:49.172Z,16.42
2016-10-12T03:40:59.899Z,16.38
2016-10-12T03:42:11.627Z,16.34
2016-10-12T03:43:22.350Z,16.33
2016-10-12T03:44:33.074Z,16.38
2016-10-12T03:45:43.805Z,16.39
2016-10-12T03:46:54.515Z,16.43
2016-10-12T03:48:06.242Z,16.41
2016-10-12T03:49:17.970Z,16.46
2016-10-12T03:50:28.674Z,16.43
2016-10-12T03:51:39.398Z,16.43
2016-10-12T03:52:51.117Z,16.38
2016-10-12T03:54:02.330Z,16.43
2016-10-12T03:55:13.521Z,16.28
2016-10-12T03:56:25.268Z,16.3
2016-10-12T03:57:36.005Z,16.31
2016-10-12T03:58:46.692Z,16.48
2016-10-12T03:59:57.408Z,16.38
2016-10-12T04:01:08.101Z,16.39
2016-10-12T04:02:19.338Z,16.39
2016-10-12T04:03:30.671Z,16.28
2016-10-12T04:04:41.380Z,16.34
2016-10-12T04:05:52.097Z,16.23
2016-10-12T04:07:02.847Z,16.31
2016-10-12T04:08:13.548Z,16.38
2016-10-12T04:09:24.742Z,16.31
2016-10-12T04:10:35.436Z,16.23
2016-10-12T04:11:46.139Z,16.33
2016-10-12T04:12:57.381Z,16.23
2016-10-12T04:14:08.083Z,16.14
2016-10-12T04:15:18.776Z,16.17
2016-10-12T04:16:29.966Z,16.15
2016-10-12T04:17:41.212Z,16.12
2016-10-12T04:18:51.938Z,16.07
2016-10-12T04:20:02.635Z,16.04
2016-10-12T04:21:13.342Z,16.08
2016-10-12T04:22:24.044Z,16.07
2016-10-12T04:23:34.726Z,16.14
2016-10-12T04:24:45.955Z,16.05
2016-10-12T04:25:56.689Z,16.05
2016-10-12T04:27:07.400Z,16.04
2016-10-12T04:28:18.116Z,16.11
2016-10-12T04:29:28.818Z,16.15
2016-10-12T04:30:39.543Z,16.21
2016-10-12T04:31:50.254Z,16.12
2016-10-12T04:33:00.938Z,16.12
2016-10-12T04:34:12.194Z,16.08
2016-10-12T04:35:22.896Z,16.14
2016-10-12T04:36:33.603Z,16.15
2016-10-12T04:37:44.302Z,16.15
2016-10-12T04:38:55.035Z,16.14
2016-10-12T04:40:05.747Z,16.23
2016-10-12T04:41:16.461Z,16.02
2016-10-12T04:42:27.141Z,16.12
2016-10-12T04:43:37.825Z,16.05
2016-10-12T04:44:48.529Z,16.04
2016-10-12T04:45:59.222Z,16.01
2016-10-12T04:47:09.943Z,16.07
2016-10-12T04:48:20.646Z,16.02
2016-10-12T04:49:31.368Z,16.04
2016-10-12T04:50:42.065Z,16.08
2016-10-12T04:51:52.751Z,16.07
2016-10-12T04:53:03.422Z,16.09
2016-10-12T04:54:14.131Z,16.02
2016-10-12T04:55:24.813Z,16.07
2016-10-12T04:56:35.524Z,16.02
2016-10-12T04:57:46.214Z,16.08
2016-10-12T04:58:56.920Z,15.93
2016-10-12T05:00:07.641Z,16.08
2016-10-12T05:01:18.359Z,16.05
2016-10-12T05:02:29.049Z,16.07
2016-10-12T05:03:39.735Z,16.09
2016-10-12T05:04:50.440Z,16.04
2016-10-12T05:06:01.153Z,16.05
2016-10-12T05:07:11.873Z,16
2016-10-12T05:08:22.593Z,16.01
2016-10-12T05:09:33.804Z,16.12
2016-10-12T05:10:44.522Z,16
2016-10-12T05:11:55.210Z,16.02
2016-10-12T05:13:05.924Z,16.05
2016-10-12T05:14:16.651Z,16.12
2016-10-12T05:15:27.340Z,16.01
2016-10-12T05:16:38.050Z,16.12
2016-10-12T05:17:48.772Z,16.02
2016-10-12T05:18:59.480Z,16.05
2016-10-12T05:20:10.193Z,16.08
2016-10-12T05:21:20.895Z,16.07
2016-10-12T05:22:31.595Z,16.01
2016-10-12T05:23:42.288Z,16.11
2016-10-12T05:24:52.972Z,16.07
2016-10-12T05:26:03.696Z,16.11
2016-10-12T05:27:14.388Z,16.28
2016-10-12T05:28:25.091Z,16.21
2016-10-12T05:29:35.791Z,16.11
2016-10-12T05:30:46.490Z,16.07
2016-10-12T05:31:57.207Z,16.08
2016-10-12T05:33:07.919Z,16.11
2016-10-12T05:34:18.619Z,16.05
2016-10-12T05:35:29.314Z,16.09
2016-10-12T05:36:40.036Z,16.02
2016-10-12T05:37:50.737Z,16.04
2016-10-12T05:39:01.462Z,15.97
2016-10-12T05:40:12.685Z,16.07
2016-10-12T05:41:23.386Z,16.07
2016-10-12T05:42:34.097Z,15.97
2016-10-12T05:43:44.793Z,16.05
2016-10-12T05:44:55.495Z,16.02
2016-10-12T05:46:06.194Z,16.02
2016-10-12T05:47:16.913Z,15.94
2016-10-12T05:48:27.609Z,15.94
2016-10-12T05:49:38.301Z,15.96
2016-10-12T05:50:49.032Z,15.96
2016-10-12T05:51:59.744Z,15.89
2016-10-12T05:53:10.488Z,15.94
2016-10-12T05:54:21.186Z,15.97
2016-10-12T05:55:31.910Z,16.05
2016-10-12T05:56:42.615Z,16.02
2016-10-12T05:57:53.335Z,16
2016-10-12T05:59:04.040Z,16.09
2016-10-12T06:00:14.738Z,16.04
2016-10-12T06:01:25.429Z,16.2
2016-10-12T06:02:36.109Z,16.25
2016-10-12T06:03:46.802Z,16.2
2016-10-12T06:04:57.517Z,16.15
2016-10-12T06:06:08.207Z,16.17
2016-10-12T06:07:18.921Z,16.09
2016-10-12T06:08:29.601Z,16.04
2016-10-12T06:09:40.293Z,15.96
2016-10-12T06:10:51.039Z,16.01
2016-10-12T06:12:01.741Z,15.93
2016-10-12T06:13:12.449Z,15.86
2016-10-12T06:14:23.139Z,15.82
2016-10-12T06:15:33.879Z,15.76
2016-10-12T06:16:44.594Z,15.78
2016-10-12T06:17:55.323Z,15.72
2016-10-12T06:19:06.033Z,15.64
2016-10-12T06:20:16.743Z,15.65
2016-10-12T06:21:27.451Z,15.65
2016-10-12T06:22:38.181Z,15.67
2016-10-12T06:23:48.896Z,15.74
2016-10-12T06:24:59.638Z,15.71
2016-10-12T06:26:10.348Z,15.75
2016-10-12T06:27:21.065Z,15.74
2016-10-12T06:28:31.792Z,15.75
2016-10-12T06:29:42.496Z,15.8
2016-10-12T06:30:53.201Z,15.75
2016-10-12T06:32:04.466Z,15.75
2016-10-12T06:33:15.164Z,15.75
2016-10-12T06:34:25.916Z,15.75
2016-10-12T06:35:36.645Z,15.72
2016-10-12T06:36:47.349Z,15.72
2016-10-12T06:37:58.043Z,15.76
2016-10-12T06:39:08.748Z,15.71
2016-10-12T06:40:19.480Z,15.74
2016-10-12T06:41:30.227Z,15.71
2016-10-12T06:42:40.942Z,15.75
2016-10-12T06:43:51.643Z,15.71
2016-10-12T06:45:02.350Z,15.68
2016-10-12T06:46:13.053Z,15.76
2016-10-12T06:47:23.764Z,15.68
2016-10-12T06:48:34.470Z,15.71
2016-10-12T06:49:45.195Z,15.68
2016-10-12T06:50:55.879Z,15.64
2016-10-12T06:52:06.581Z,15.67
2016-10-12T06:53:17.288Z,15.67
2016-10-12T06:54:27.966Z,15.54
2016-10-12T06:55:38.672Z,15.59
2016-10-12T06:56:49.365Z,15.54
2016-10-12T06:58:00.084Z,15.6
2016-10-12T06:59:10.800Z,15.53
2016-10-12T07:00:21.500Z,15.56
2016-10-12T07:01:32.210Z,15.53
2016-10-12T07:02:42.920Z,15.54
2016-10-12T07:03:53.623Z,15.54
2016-10-12T07:05:04.333Z,15.44
2016-10-12T07:06:15.023Z,15.46
2016-10-12T07:07:25.743Z,15.36
2016-10-12T07:08:36.489Z,15.44
2016-10-12T07:09:47.194Z,15.43
2016-10-12T07:10:57.920Z,15.34
2016-10-12T07:12:08.609Z,15.43
2016-10-12T07:13:19.333Z,15.36
2016-10-12T07:14:30.012Z,15.41
2016-10-12T07:15:40.716Z,15.41
2016-10-12T07:16:51.696Z,15.38
2016-10-12T07:18:02.399Z,15.47
2016-10-12T07:19:13.089Z,15.43
2016-10-12T07:20:24.002Z,15.35
2016-10-12T07:21:34.724Z,15.34
2016-10-12T07:22:45.431Z,15.43
2016-10-12T07:23:56.128Z,15.38
2016-10-12T07:25:06.852Z,15.39
2016-10-12T07:26:17.559Z,15.39
2016-10-12T07:27:28.280Z,15.36
2016-10-12T07:28:38.977Z,15.28
2016-10-12T07:29:49.690Z,15.25
2016-10-12T07:31:00.407Z,15.29
2016-10-12T07:32:11.094Z,15.23
2016-10-12T07:33:21.801Z,15.29
2016-10-12T07:34:32.497Z,15.34
2016-10-12T07:35:43.204Z,15.29
2016-10-12T07:36:53.899Z,15.2
2016-10-12T07:38:04.652Z,15.23
2016-10-12T07:39:15.381Z,15.27
2016-10-12T07:40:26.094Z,15.23
2016-10-12T07:41:36.830Z,15.13
2016-10-12T07:42:47.542Z,15.2
2016-10-12T07:43:58.285Z,15.19
2016-10-12T07:45:09.025Z,15.27
2016-10-12T07:46:20.290Z,15.31
2016-10-12T07:47:31.702Z,15.36
2016-10-12T07:48:42.417Z,15.39
2016-10-12T07:49:53.128Z,15.25
2016-10-12T07:51:03.881Z,15.28
2016-10-12T07:52:14.577Z,15.28
2016-10-12T07:53:25.289Z,15.25
2016-10-12T07:54:35.973Z,15.28
2016-10-12T07:55:46.693Z,15.25
2016-10-12T07:56:57.438Z,15.34
2016-10-12T07:58:08.133Z,15.31
2016-10-12T07:59:18.845Z,15.35
2016-10-12T08:00:29.546Z,15.43
2016-10-12T08:01:40.241Z,15.39
2016-10-12T08:02:50.965Z,15.35
2016-10-12T08:04:01.679Z,15.34
2016-10-12T08:05:12.395Z,15.35
2016-10-12T08:06:23.102Z,15.36
2016-10-12T08:07:33.831Z,15.36
2016-10-12T08:08:44.544Z,15.39
2016-10-12T08:09:55.263Z,15.35
2016-10-12T08:11:05.984Z,15.36
2016-10-12T08:12:17.200Z,15.38
2016-10-12T08:13:27.913Z,15.39
2016-10-12T08:14:39.134Z,15.32
2016-10-12T08:15:49.838Z,15.39
2016-10-12T08:17:00.549Z,15.38
2016-10-12T08:18:11.263Z,15.44
2016-10-12T08:19:21.961Z,15.35
2016-10-12T08:20:32.689Z,15.39
2016-10-12T08:21:43.412Z,15.21
2016-10-12T08:22:54.115Z,15.31
2016-10-12T08:24:04.816Z,15.35
2016-10-12T08:25:15.533Z,15.2
2016-10-12T08:26:26.222Z,15.31
2016-10-12T08:27:36.920Z,15.27
2016-10-12T08:28:47.610Z,15.27
2016-10-12T08:29:58.303Z,15.21
2016-10-12T08:31:08.996Z,15.23
2016-10-12T08:32:19.701Z,15.21
2016-10-12T08:33:30.404Z,15.21
2016-10-12T08:34:41.104Z,15.2
2016-10-12T08:35:51.847Z,15.2
2016-10-12T08:37:02.527Z,15.28
2016-10-12T08:38:13.246Z,15.23
2016-10-12T08:39:23.985Z,15.28
2016-10-12T08:40:34.692Z,15.38
2016-10-12T08:41:45.420Z,15.38
2016-10-12T08:42:56.639Z,15.36
2016-10-12T08:44:07.369Z,15.34
2016-10-12T08:45:18.073Z,15.39
2016-10-12T08:46:28.769Z,15.35
2016-10-12T08:47:39.470Z,15.35
2016-10-12T08:48:50.179Z,15.47
2016-10-12T08:50:00.858Z,15.5
2016-10-12T08:51:11.535Z,15.56
2016-10-12T08:52:22.438Z,15.67
2016-10-12T08:53:33.119Z,15.68
2016-10-12T08:54:44.053Z,15.74
2016-10-12T08:55:54.742Z,15.75
2016-10-12T08:57:05.459Z,15.74
2016-10-12T08:58:16.304Z,15.83
2016-10-12T08:59:27.165Z,16.01
2016-10-12T09:00:38.390Z,16.15
2016-10-12T09:01:49.126Z,16.09
2016-10-12T09:02:59.843Z,16.15
2016-10-12T09:04:10.527Z,16.28
2016-10-12T09:05:21.209Z,16.48
2016-10-12T09:06:31.918Z,16.6
2016-10-12T09:07:42.614Z,16.75
2016-10-12T09:08:53.312Z,16.96
2016-10-12T09:10:04.004Z,17.15
2016-10-12T09:11:14.700Z,17.43
2016-10-12T09:12:25.591Z,17.66
2016-10-12T09:13:36.300Z,17.97
2016-10-12T09:14:46.997Z,18.15
2016-10-12T09:15:57.716Z,18.23
2016-10-12T09:17:08.428Z,18.33
2016-10-12T09:18:19.131Z,18.6
2016-10-12T09:19:29.868Z,18.65
2016-10-12T09:20:40.581Z,18.88
2016-10-12T09:21:51.274Z,19.07
2016-10-12T09:23:01.981Z,19.08
2016-10-12T09:24:13.211Z,19.14
2016-10-12T09:25:23.901Z,19.25
2016-10-12T09:26:34.597Z,19.36
2016-10-12T09:27:45.309Z,19.59
2016-10-12T09:28:56.004Z,19.84
2016-10-12T09:30:06.701Z,20.13
2016-10-12T09:31:17.417Z,20.1
2016-10-12T09:32:28.115Z,20.21
2016-10-12T09:33:38.834Z,20.47
2016-10-12T09:34:49.525Z,20.55
2016-10-12T09:36:00.248Z,20.58
2016-10-12T09:37:11.472Z,20.66
2016-10-12T09:38:22.189Z,20.74
2016-10-12T09:39:32.926Z,21.01
2016-10-12T09:40:43.614Z,21.1
2016-10-12T09:41:54.288Z,21.09
2016-10-12T09:43:04.983Z,21.24
2016-10-12T09:44:15.685Z,21.31
2016-10-12T09:45:26.952Z,21.32
2016-10-12T09:46:37.655Z,21.21
2016-10-12T09:47:48.352Z,21.22
2016-10-12T09:48:59.060Z,21.29
2016-10-12T09:50:09.787Z,21.24
2016-10-12T09:51:20.513Z,21.42
2016-10-12T09:52:31.234Z,21.32
2016-10-12T09:53:41.957Z,21.4
2016-10-12T09:54:52.662Z,21.21
2016-10-12T09:56:03.386Z,21.13
2016-10-12T09:57:14.121Z,20.91
2016-10-12T09:58:24.826Z,20.89
2016-10-12T09:59:35.533Z,21.06
2016-10-12T10:00:46.225Z,20.95
2016-10-12T10:01:56.940Z,20.92
2016-10-12T10:03:07.667Z,20.76
2016-10-12T10:04:18.366Z,20.67
2016-10-12T10:05:29.089Z,21.01
2016-10-12T10:06:39.814Z,21.04
2016-10-12T10:07:50.517Z,20.87
2016-10-12T10:09:01.258Z,20.8
2016-10-12T10:10:11.931Z,20.74
2016-10-12T10:11:22.632Z,20.87
2016-10-12T10:12:33.347Z,20.82
2016-10-12T10:13:44.059Z,21.09
2016-10-12T10:14:54.771Z,21.28
2016-10-12T10:16:05.482Z,21.79
2016-10-12T10:17:16.214Z,22.07
2016-10-12T10:18:27.007Z,22.43
2016-10-12T10:19:37.721Z,22.72
2016-10-12T10:20:48.423Z,22.31
2016-10-12T10:21:59.171Z,21.94
2016-10-12T10:23:09.880Z,21.67
2016-10-12T10:24:20.564Z,21.47
2016-10-12T10:25:31.297Z,21.72
2016-10-12T10:26:42.014Z,21.84
2016-10-12T10:27:52.768Z,22.09
2016-10-12T10:29:03.483Z,22.46
2016-10-12T10:30:14.189Z,22.72
2016-10-12T10:31:24.911Z,23.19
2016-10-12T10:32:35.637Z,23.68
2016-10-12T10:33:46.350Z,24.21
2016-10-12T10:34:57.054Z,24.55
2016-10-12T10:36:07.787Z,24.5
2016-10-12T10:37:19.011Z,24.46
2016-10-12T10:38:29.719Z,24.55
2016-10-12T10:39:40.441Z,24.93
2016-10-12T10:40:51.157Z,24.45
2016-10-12T10:42:01.894Z,23.9
2016-10-12T10:43:13.147Z,23.79
2016-10-12T10:44:23.856Z,23.17
2016-10-12T10:45:34.580Z,23.1
2016-10-12T10:46:45.318Z,23.51
2016-10-12T10:47:56.020Z,23.8
2016-10-12T10:49:06.722Z,24.02
2016-10-12T10:50:17.439Z,24.45
2016-10-12T10:51:28.172Z,24.61
2016-10-12T10:52:38.895Z,24.58
2016-10-12T10:53:49.578Z,24.65
2016-10-12T10:55:00.316Z,24.58
2016-10-12T10:56:11.040Z,24.61
2016-10-12T10:57:21.780Z,24.76
2016-10-12T10:58:32.510Z,25.18
2016-10-12T10:59:43.198Z,25.15
2016-10-12T11:00:53.927Z,24.99
2016-10-12T11:02:05.212Z,25.42
2016-10-12T11:03:15.956Z,25.6
2016-10-12T11:04:26.682Z,25.45
2016-10-12T11:05:37.925Z,25.21
2016-10-12T11:06:48.646Z,24.93
2016-10-12T11:07:59.380Z,24.85
2016-10-12T11:09:10.114Z,24.71
2016-10-12T11:10:20.866Z,24.64
2016-10-12T11:11:31.570Z,24.84
2016-10-12T11:12:42.314Z,24.98
2016-10-12T11:13:53.007Z,24.96
2016-10-12T11:15:03.760Z,24.93
2016-10-12T11:16:14.471Z,24.78
2016-10-12T11:17:25.200Z,24.96
2016-10-12T11:18:35.941Z,25.32
2016-10-12T11:19:46.678Z,25.39
2016-10-12T11:20:57.591Z,25.6
2016-10-12T11:22:08.525Z,25.27
2016-10-12T11:23:19.250Z,25.3
2016-10-12T11:24:29.991Z,25.69
2016-10-12T11:25:40.744Z,26.07
2016-10-12T11:26:51.466Z,26.2
2016-10-12T11:28:02.167Z,26.2
2016-10-12T11:29:12.896Z,25.32
2016-10-12T11:30:24.103Z,24.47
2016-10-12T11:31:34.821Z,24.32
2016-10-12T11:32:45.564Z,24.84
2016-10-12T11:33:56.306Z,24.99
2016-10-12T11:35:07.059Z,25.27
2016-10-12T11:36:17.780Z,25.58
2016-10-12T11:37:28.483Z,25.97
2016-10-12T11:38:39.195Z,25.83
2016-10-12T11:39:49.927Z,25.79
2016-10-12T11:41:00.661Z,25.77
2016-10-12T11:42:11.397Z,25.51
2016-10-12T11:43:22.126Z,25.45
2016-10-12T11:44:32.842Z,25.15
2016-10-12T11:45:43.549Z,25.28
2016-10-12T11:46:54.281Z,25.27
2016-10-12T11:48:05.080Z,25.02
2016-10-12T11:49:15.846Z,25.28
2016-10-12T11:50:26.599Z,25.54
2016-10-12T11:51:37.837Z,25.77
2016-10-12T11:52:48.535Z,26.06
2016-10-12T11:53:59.255Z,26.48
2016-10-12T11:55:09.973Z,26.84
2016-10-12T11:56:20.697Z,26.99
2016-10-12T11:57:31.414Z,26.62
2016-10-12T11:58:42.147Z,26.2
2016-10-12T11:59:53.380Z,25.4
2016-10-12T12:01:04.161Z,24.91
2016-10-12T12:02:14.888Z,24.69
2016-10-12T12:03:25.610Z,25
2016-10-12T12:04:36.319Z,25.32
2016-10-12T12:05:47.023Z,25.6
2016-10-12T12:06:57.739Z,25.57
2016-10-12T12:08:08.478Z,25.42
2016-10-12T12:09:19.214Z,25.17
2016-10-12T12:10:29.920Z,25.45
2016-10-12T12:11:40.661Z,25.85
2016-10-12T12:12:51.419Z,25.92
2016-10-12T12:14:02.147Z,25.32
2016-10-12T12:15:12.882Z,24.85
2016-10-12T12:16:23.620Z,24.53
2016-10-12T12:17:34.356Z,24.52
2016-10-12T12:18:45.099Z,24.68
2016-10-12T12:19:55.826Z,24.95
2016-10-12T12:21:06.573Z,25.17
2016-10-12T12:22:17.289Z,25.51
2016-10-12T12:23:28.019Z,25.77
2016-10-12T12:24:38.751Z,26.44
2016-10-12T12:25:49.465Z,26.5
2016-10-12T12:27:00.186Z,25.98
2016-10-12T12:28:11.448Z,25.61
2016-10-12T12:29:22.172Z,25.35
2016-10-12T12:30:32.903Z,25.58
2016-10-12T12:31:43.587Z,26.2
2016-10-12T12:32:54.342Z,26.7
2016-10-12T12:34:05.093Z,27.31
2016-10-12T12:35:15.822Z,27.28
2016-10-12T12:36:26.589Z,27.27
2016-10-12T12:37:37.332Z,27
2016-10-12T12:38:48.075Z,26.55
2016-10-12T12:39:58.788Z,26.45
2016-10-12T12:41:09.516Z,26.44
2016-10-12T12:42:20.234Z,26.4
2016-10-12T12:43:30.969Z,26.07
2016-10-12T12:44:41.702Z,25.94
2016-10-12T12:45:52.414Z,26.26
2016-10-12T12:47:03.147Z,26.29
2016-10-12T12:48:13.840Z,26.29
2016-10-12T12:49:24.539Z,26.23
2016-10-12T12:50:35.253Z,26.23
2016-10-12T12:51:45.962Z,25.83
2016-10-12T12:52:56.667Z,25.7
2016-10-12T12:54:07.404Z,25.52
2016-10-12T12:55:18.112Z,25.82
2016-10-12T12:56:28.835Z,26.32
2016-10-12T12:57:39.545Z,26.66
2016-10-12T12:58:50.278Z,26.84
2016-10-12T13:00:01.002Z,27.06
2016-10-12T13:01:12.231Z,27.02
2016-10-12T13:02:22.951Z,27.41
2016-10-12T13:03:33.668Z,27.59
2016-10-12T13:04:44.371Z,27.75
2016-10-12T13:05:55.113Z,27.43
2016-10-12T13:07:05.823Z,27.02
2016-10-12T13:08:16.565Z,26.77
2016-10-12T13:09:27.304Z,26.81
2016-10-12T13:10:38.047Z,27.03
2016-10-12T13:11:48.765Z,27.29
2016-10-12T13:12:59.500Z,27.24
2016-10-12T13:14:10.231Z,27.34
2016-10-12T13:15:20.957Z,27.34
2016-10-12T13:16:31.678Z,27.17
2016-10-12T13:17:42.416Z,27.09
2016-10-12T13:18:53.121Z,27.27
2016-10-12T13:20:03.875Z,27.77
2016-10-12T13:21:14.580Z,27.44
2016-10-12T13:22:25.321Z,27.47
2016-10-12T13:23:36.025Z,27.81
2016-10-12T13:24:46.733Z,28
2016-10-12T13:25:57.496Z,28.03
2016-10-12T13:27:08.210Z,27.87
2016-10-12T13:28:18.930Z,27.6
2016-10-12T13:29:29.628Z,27.41
2016-10-12T13:30:40.369Z,27.24
2016-10-12T13:31:51.082Z,27.02
2016-10-12T13:33:01.812Z,26.87
2016-10-12T13:34:12.586Z,26.99
2016-10-12T13:35:23.304Z,27.04
2016-10-12T13:36:34.027Z,27.34
2016-10-12T13:37:44.714Z,27.44
2016-10-12T13:38:55.435Z,27.41
2016-10-12T13:40:06.163Z,27.25
2016-10-12T13:41:16.874Z,27.43
2016-10-12T13:42:27.607Z,27.09
2016-10-12T13:43:38.326Z,26.92
2016-10-12T13:44:49.087Z,26.69
2016-10-12T13:45:59.804Z,26.55
2016-10-12T13:47:10.493Z,26.99
2016-10-12T13:48:21.217Z,27
2016-10-12T13:49:31.927Z,26.99
2016-10-12T13:50:42.672Z,26.95
2016-10-12T13:51:53.399Z,26.8
2016-10-12T13:53:04.140Z,26.8
2016-10-12T13:54:14.865Z,26.7
2016-10-12T13:55:25.572Z,26.82
2016-10-12T13:56:36.823Z,27.04
2016-10-12T13:57:47.546Z,27.21
2016-10-12T13:58:58.276Z,27.41
2016-10-12T14:00:08.991Z,26.91
2016-10-12T14:01:19.723Z,26.72
2016-10-12T14:02:30.451Z,26.92
2016-10-12T14:03:41.186Z,27.04
2016-10-12T14:04:51.890Z,27.32
2016-10-12T14:06:02.612Z,27.36
2016-10-12T14:07:13.343Z,27.32
2016-10-12T14:08:24.042Z,27.22
2016-10-12T14:09:34.754Z,27.7
2016-10-12T14:10:45.473Z,27.84
2016-10-12T14:11:56.203Z,27.99
2016-10-12T14:13:06.944Z,27.93
2016-10-12T14:14:18.177Z,27.94
2016-10-12T14:15:29.414Z,27.9
2016-10-12T14:16:40.148Z,27.62
2016-10-12T14:17:50.877Z,27.7
2016-10-12T14:19:01.631Z,27.75
2016-10-12T14:20:12.345Z,27.65
2016-10-12T14:21:23.085Z,27.65
2016-10-12T14:22:33.799Z,27.92
2016-10-12T14:23:44.552Z,28.29
2016-10-12T14:24:55.292Z,28.3
2016-10-12T14:26:06.035Z,28.37
2016-10-12T14:27:16.764Z,28.49
2016-10-12T14:28:27.982Z,28.29
2016-10-12T14:29:38.708Z,28.19
2016-10-12T14:30:49.430Z,28.54
2016-10-12T14:32:00.140Z,29.08
2016-10-12T14:33:10.874Z,29.31
2016-10-12T14:34:21.710Z,29.31
2016-10-12T14:35:32.426Z,29.24
2016-10-12T14:36:43.154Z,29.26
2016-10-12T14:37:53.879Z,29.05
2016-10-12T14:39:05.119Z,29.04
2016-10-12T14:40:15.841Z,28.61
2016-10-12T14:41:26.583Z,28.66
2016-10-12T14:42:37.318Z,29.18
2016-10-12T14:43:48.052Z,29.42
2016-10-12T14:44:58.812Z,29.74
2016-10-12T14:46:10.095Z,30
2016-10-12T14:47:20.830Z,30.26
2016-10-12T14:48:31.561Z,29.65
2016-10-12T14:49:42.290Z,29.21
2016-10-12T14:50:53.009Z,29.34
2016-10-12T14:52:03.736Z,29.28
2016-10-12T14:53:14.468Z,29.53
2016-10-12T14:54:25.232Z,29.85
2016-10-12T14:55:35.959Z,30.37
2016-10-12T14:56:46.695Z,31.02
2016-10-12T14:57:57.454Z,31.43
2016-10-12T14:59:08.193Z,31.51
2016-10-12T15:00:18.946Z,31.61
2016-10-12T15:01:30.197Z,31.85
2016-10-12T15:02:41.412Z,32.23
2016-10-12T15:03:52.688Z,31.34
2016-10-12T15:05:03.389Z,30.76
2016-10-12T15:06:14.136Z,30.45
2016-10-12T15:07:24.856Z,30.34
2016-10-12T15:08:35.567Z,30.51
2016-10-12T15:09:46.306Z,30.55
2016-10-12T15:10:57.054Z,31.17
2016-10-12T15:12:07.760Z,31.39
2016-10-12T15:13:18.493Z,32.25
2016-10-12T15:14:29.205Z,32.78